sensor_id;sensor_type;location;lat;lon;timestamp;pressure;altitude;pressure_sealevel;temperature;humidity
18795;BME280;29610;49.022;12.114;2023-04-15T00:02:40;96579.78;;;8.05;100.00
18795;BME280;29610;49.022;12.114;2023-04-15T00:05:30;96585.25;;;7.97;100.00
18795;BME280;29610;49.022;12.114;2023-04-15T00:08:19;96582.09;;;7.95;100.00
18795;BME280;29610;49.022;12.114;2023-04-15T00:11:08;96576.56;;;7.91;100.00
18795;BME280;29610;49.022;12.114;2023-04-15T00:13:57;96578.09;;;8.01;100.00
18795;BME280;29610;49.022;12.114;2023-04-15T00:16:46;96570.16;;;7.96;100.00
18795;BME280;29610;49.022;12.114;2023-04-15T00:19:43;96568.25;;;7.76;100.00
18795;BME280;29610;49.022;12.114;2023-04-15T00:22:32;96573.94;;;7.83;100.00
18795;BME280;29610;49.022;12.114;2023-04-15T00:25:21;96560.59;;;7.78;100.00
18795;BME280;29610;49.022;12.114;2023-04-15T00:28:10;96561.53;;;7.82;100.00
18795;BME280;29610;49.022;12.114;2023-04-15T00:30:59;96562.16;;;7.79;100.00
18795;BME280;29610;49.022;12.114;2023-04-15T00:33:48;96549.78;;;7.78;100.00
18795;BME280;29610;49.022;12.114;2023-04-15T00:36:38;96550.84;;;7.65;100.00
18795;BME280;29610;49.022;12.114;2023-04-15T00:39:27;96549.41;;;7.67;100.00
18795;BME280;29610;49.022;12.114;2023-04-15T00:42:17;96548.53;;;7.75;100.00
18795;BME280;29610;49.022;12.114;2023-04-15T00:45:07;96543.19;;;7.67;100.00
18795;BME280;29610;49.022;12.114;2023-04-15T00:47:57;96545.38;;;7.73;100.00
18795;BME280;29610;49.022;12.114;2023-04-15T00:50:46;96542.00;;;7.76;100.00
18795;BME280;29610;49.022;12.114;2023-04-15T00:53:36;96543.72;;;7.81;100.00
18795;BME280;29610;49.022;12.114;2023-04-15T00:56:27;96543.25;;;7.79;100.00
18795;BME280;29610;49.022;12.114;2023-04-15T00:59:17;96543.31;;;7.70;100.00
18795;BME280;29610;49.022;12.114;2023-04-15T01:02:06;96534.94;;;7.84;100.00
18795;BME280;29610;49.022;12.114;2023-04-15T01:04:55;96534.72;;;7.89;100.00
18795;BME280;29610;49.022;12.114;2023-04-15T01:07:46;96531.91;;;7.85;100.00
18795;BME280;29610;49.022;12.114;2023-04-15T01:10:37;96538.81;;;7.95;100.00
18795;BME280;29610;49.022;12.114;2023-04-15T01:13:26;96538.94;;;7.98;100.00
18795;BME280;29610;49.022;12.114;2023-04-15T01:16:16;96532.16;;;7.92;100.00
18795;BME280;29610;49.022;12.114;2023-04-15T01:19:09;96540.44;;;8.08;100.00
18795;BME280;29610;49.022;12.114;2023-04-15T01:21:58;96532.78;;;8.10;100.00
18795;BME280;29610;49.022;12.114;2023-04-15T01:24:56;96539.53;;;8.04;100.00
18795;BME280;29610;49.022;12.114;2023-04-15T01:27:52;96537.41;;;8.09;100.00
18795;BME280;29610;49.022;12.114;2023-04-15T01:30:41;96535.97;;;8.12;100.00
18795;BME280;29610;49.022;12.114;2023-04-15T01:33:31;96533.81;;;8.17;100.00
18795;BME280;29610;49.022;12.114;2023-04-15T01:36:38;96536.03;;;8.24;100.00
18795;BME280;29610;49.022;12.114;2023-04-15T01:39:27;96540.56;;;8.11;100.00
18795;BME280;29610;49.022;12.114;2023-04-15T01:42:16;96537.41;;;8.09;100.00
18795;BME280;29610;49.022;12.114;2023-04-15T01:45:09;96537.88;;;8.11;100.00
18795;BME280;29610;49.022;12.114;2023-04-15T01:48:00;96530.56;;;8.12;100.00
18795;BME280;29610;49.022;12.114;2023-04-15T01:50:53;96526.34;;;8.02;100.00
18795;BME280;29610;49.022;12.114;2023-04-15T01:53:45;96516.91;;;8.08;100.00
18795;BME280;29610;49.022;12.114;2023-04-15T01:56:35;96519.00;;;8.03;100.00
18795;BME280;29610;49.022;12.114;2023-04-15T01:59:25;96526.22;;;7.99;100.00
18795;BME280;29610;49.022;12.114;2023-04-15T02:02:17;96525.41;;;7.98;100.00
18795;BME280;29610;49.022;12.114;2023-04-15T02:05:08;96531.56;;;8.07;100.00
18795;BME280;29610;49.022;12.114;2023-04-15T02:07:58;96522.81;;;7.90;100.00
18795;BME280;29610;49.022;12.114;2023-04-15T02:10:48;96521.94;;;7.98;100.00
18795;BME280;29610;49.022;12.114;2023-04-15T02:13:39;96529.59;;;7.96;100.00
18795;BME280;29610;49.022;12.114;2023-04-15T02:16:29;96525.75;;;7.97;100.00
18795;BME280;29610;49.022;12.114;2023-04-15T02:19:21;96526.28;;;7.90;100.00
18795;BME280;29610;49.022;12.114;2023-04-15T02:22:11;96519.00;;;8.03;100.00
18795;BME280;29610;49.022;12.114;2023-04-15T02:25:08;96523.03;;;7.97;100.00
18795;BME280;29610;49.022;12.114;2023-04-15T02:27:59;96518.09;;;7.99;100.00
18795;BME280;29610;49.022;12.114;2023-04-15T02:30:49;96525.41;;;7.98;100.00
18795;BME280;29610;49.022;12.114;2023-04-15T02:33:41;96520.84;;;8.11;100.00
18795;BME280;29610;49.022;12.114;2023-04-15T02:36:33;96521.72;;;8.03;100.00
18795;BME280;29610;49.022;12.114;2023-04-15T02:39:23;96534.72;;;7.89;100.00
18795;BME280;29610;49.022;12.114;2023-04-15T02:42:13;96531.56;;;7.87;100.00
18795;BME280;29610;49.022;12.114;2023-04-15T02:45:04;96526.03;;;7.83;100.00
18795;BME280;29610;49.022;12.114;2023-04-15T02:47:56;96526.22;;;7.99;100.00
18795;BME280;29610;49.022;12.114;2023-04-15T02:50:46;96522.78;;;8.10;100.00
18795;BME280;29610;49.022;12.114;2023-04-15T02:53:39;96526.25;;;8.11;100.00
18795;BME280;29610;49.022;12.114;2023-04-15T02:56:30;96526.16;;;8.07;100.00
18795;BME280;29610;49.022;12.114;2023-04-15T02:59:20;96528.78;;;7.95;100.00
18795;BME280;29610;49.022;12.114;2023-04-15T03:02:10;96527.00;;;7.79;100.00
18795;BME280;29610;49.022;12.114;2023-04-15T03:05:01;96535.94;;;7.79;100.00
18795;BME280;29610;49.022;12.114;2023-04-15T03:07:52;96536.94;;;7.75;100.00
18795;BME280;29610;49.022;12.114;2023-04-15T03:10:44;96531.44;;;7.83;100.00
18795;BME280;29610;49.022;12.114;2023-04-15T03:13:34;96530.84;;;7.78;100.00
18795;BME280;29610;49.022;12.114;2023-04-15T03:16:31;96529.16;;;7.73;100.00
18795;BME280;29610;49.022;12.114;2023-04-15T03:19:22;96527.31;;;7.65;100.00
18795;BME280;29610;49.022;12.114;2023-04-15T03:22:16;96532.25;;;7.63;100.00
18795;BME280;29610;49.022;12.114;2023-04-15T03:25:08;96529.34;;;7.68;100.00
18795;BME280;29610;49.022;12.114;2023-04-15T03:28:00;96532.97;;;7.72;100.00
18795;BME280;29610;49.022;12.114;2023-04-15T03:30:51;96528.22;;;7.69;100.00
18795;BME280;29610;49.022;12.114;2023-04-15T03:33:42;96531.38;;;7.71;100.00
18795;BME280;29610;49.022;12.114;2023-04-15T03:36:32;96526.56;;;7.77;100.00
18795;BME280;29610;49.022;12.114;2023-04-15T03:39:22;96524.41;;;7.70;100.00
18795;BME280;29610;49.022;12.114;2023-04-15T03:42:12;96525.84;;;7.68;100.00
18795;BME280;29610;49.022;12.114;2023-04-15T03:45:05;96530.81;;;7.66;100.00
18795;BME280;29610;49.022;12.114;2023-04-15T03:47:56;96530.13;;;7.69;100.00
18795;BME280;29610;49.022;12.114;2023-04-15T03:51:04;96518.25;;;7.61;100.00
18795;BME280;29610;49.022;12.114;2023-04-15T03:53:54;96522.09;;;7.60;100.00
18795;BME280;29610;49.022;12.114;2023-04-15T03:56:44;96522.47;;;7.50;100.00
18795;BME280;29610;49.022;12.114;2023-04-15T03:59:35;96522.47;;;7.50;100.00
18795;BME280;29610;49.022;12.114;2023-04-15T04:02:26;96527.78;;;7.47;100.00
18795;BME280;29610;49.022;12.114;2023-04-15T04:05:17;96524.06;;;7.30;100.00
18795;BME280;29610;49.022;12.114;2023-04-15T04:08:07;96533.56;;;7.36;100.00
18795;BME280;29610;49.022;12.114;2023-04-15T04:10:57;96528.34;;;7.31;100.00
18795;BME280;29610;49.022;12.114;2023-04-15T04:13:48;96526.88;;;7.34;100.00
18795;BME280;29610;49.022;12.114;2023-04-15T04:16:38;96527.81;;;7.38;100.00
18795;BME280;29610;49.022;12.114;2023-04-15T04:19:29;96536.13;;;7.33;100.00
18795;BME280;29610;49.022;12.114;2023-04-15T04:22:22;96539.19;;;7.23;100.00
18795;BME280;29610;49.022;12.114;2023-04-15T04:25:12;96537.66;;;7.13;100.00
18795;BME280;29610;49.022;12.114;2023-04-15T04:28:03;96541.31;;;7.17;100.00
18795;BME280;29610;49.022;12.114;2023-04-15T04:30:53;96545.31;;;7.11;100.00
18795;BME280;29610;49.022;12.114;2023-04-15T04:33:43;96551.97;;;7.14;100.00
18795;BME280;29610;49.022;12.114;2023-04-15T04:36:35;96545.59;;;7.18;100.00
18795;BME280;29610;49.022;12.114;2023-04-15T04:39:25;96559.34;;;7.05;100.00
18795;BME280;29610;49.022;12.114;2023-04-15T04:42:15;96556.56;;;7.13;100.00
18795;BME280;29610;49.022;12.114;2023-04-15T04:45:06;96566.44;;;7.18;100.00
18795;BME280;29610;49.022;12.114;2023-04-15T04:47:57;96560.59;;;7.07;100.00
18795;BME280;29610;49.022;12.114;2023-04-15T04:50:47;96563.13;;;7.04;100.00
18795;BME280;29610;49.022;12.114;2023-04-15T04:53:39;96569.00;;;7.06;100.00
18795;BME280;29610;49.022;12.114;2023-04-15T04:56:30;96574.66;;;6.92;100.00
18795;BME280;29610;49.022;12.114;2023-04-15T04:59:22;96575.56;;;6.96;100.00
18795;BME280;29610;49.022;12.114;2023-04-15T05:02:12;96581.63;;;6.93;100.00
18795;BME280;29610;49.022;12.114;2023-04-15T05:05:03;96581.66;;;6.85;100.00
18795;BME280;29610;49.022;12.114;2023-04-15T05:07:53;96580.34;;;6.91;100.00
18795;BME280;29610;49.022;12.114;2023-04-15T05:10:45;96580.34;;;6.91;100.00
18795;BME280;29610;49.022;12.114;2023-04-15T05:13:35;96580.66;;;6.98;100.00
18795;BME280;29610;49.022;12.114;2023-04-15T05:16:26;96573.94;;;7.04;100.00
18795;BME280;29610;49.022;12.114;2023-04-15T05:19:16;96572.41;;;6.94;100.00
18795;BME280;29610;49.022;12.114;2023-04-15T05:22:07;96569.91;;;7.18;100.00
18795;BME280;29610;49.022;12.114;2023-04-15T05:24:57;96574.00;;;7.24;100.00
18795;BME280;29610;49.022;12.114;2023-04-15T05:27:49;96574.59;;;7.01;100.00
18795;BME280;29610;49.022;12.114;2023-04-15T05:30:39;96583.84;;;6.91;100.00
18795;BME280;29610;49.022;12.114;2023-04-15T05:33:30;96581.94;;;6.92;100.00
18795;BME280;29610;49.022;12.114;2023-04-15T05:36:20;96575.53;;;7.05;100.00
18795;BME280;29610;49.022;12.114;2023-04-15T05:39:10;96572.66;;;7.10;100.00
18795;BME280;29610;49.022;12.114;2023-04-15T05:42:00;96575.06;;;7.03;100.00
18795;BME280;29610;49.022;12.114;2023-04-15T05:44:52;96570.38;;;7.20;100.00
18795;BME280;29610;49.022;12.114;2023-04-15T05:47:42;96578.97;;;7.14;100.00
18795;BME280;29610;49.022;12.114;2023-04-15T05:50:33;96584.03;;;6.86;100.00
18795;BME280;29610;49.022;12.114;2023-04-15T05:53:23;96584.19;;;6.90;100.00
18795;BME280;29610;49.022;12.114;2023-04-15T05:56:13;96583.34;;;6.98;100.00
18795;BME280;29610;49.022;12.114;2023-04-15T05:59:03;96590.66;;;6.97;100.00
18795;BME280;29610;49.022;12.114;2023-04-15T06:01:55;96579.84;;;6.97;100.00
18795;BME280;29610;49.022;12.114;2023-04-15T06:04:46;96581.72;;;7.05;100.00
18795;BME280;29610;49.022;12.114;2023-04-15T06:07:36;96580.28;;;7.08;100.00
18795;BME280;29610;49.022;12.114;2023-04-15T06:10:26;96582.38;;;7.02;100.00
18795;BME280;29610;49.022;12.114;2023-04-15T06:13:17;96583.50;;;7.01;100.00
18795;BME280;29610;49.022;12.114;2023-04-15T06:16:07;96583.72;;;7.17;100.00
18795;BME280;29610;49.022;12.114;2023-04-15T06:18:58;96578.69;;;7.36;100.00
18795;BME280;29610;49.022;12.114;2023-04-15T06:21:49;96584.25;;;7.39;100.00
18795;BME280;29610;49.022;12.114;2023-04-15T06:24:39;96581.31;;;7.24;100.00
18795;BME280;29610;49.022;12.114;2023-04-15T06:27:29;96582.41;;;7.23;100.00
18795;BME280;29610;49.022;12.114;2023-04-15T06:30:20;96581.00;;;7.25;100.00
18795;BME280;29610;49.022;12.114;2023-04-15T06:33:12;96584.44;;;7.34;100.00
18795;BME280;29610;49.022;12.114;2023-04-15T06:36:04;96584.28;;;7.31;100.00
18795;BME280;29610;49.022;12.114;2023-04-15T06:38:54;96587.50;;;7.24;100.00
18795;BME280;29610;49.022;12.114;2023-04-15T06:41:44;96587.56;;;7.45;100.00
18795;BME280;29610;49.022;12.114;2023-04-15T06:44:34;96588.53;;;7.61;100.00
18795;BME280;29610;49.022;12.114;2023-04-15T06:47:25;96584.13;;;7.77;100.00
18795;BME280;29610;49.022;12.114;2023-04-15T06:50:15;96585.13;;;7.73;100.00
18795;BME280;29610;49.022;12.114;2023-04-15T06:53:07;96589.66;;;7.39;100.00
18795;BME280;29610;49.022;12.114;2023-04-15T06:55:57;96588.66;;;7.44;100.00
18795;BME280;29610;49.022;12.114;2023-04-15T06:58:47;96600.16;;;7.32;100.00
18795;BME280;29610;49.022;12.114;2023-04-15T07:01:37;96593.59;;;7.42;100.00
18795;BME280;29610;49.022;12.114;2023-04-15T07:04:27;96588.44;;;7.58;100.00
18795;BME280;29610;49.022;12.114;2023-04-15T07:07:17;96593.22;;;7.52;100.00
18795;BME280;29610;49.022;12.114;2023-04-15T07:10:09;96601.84;;;7.45;100.00
18795;BME280;29610;49.022;12.114;2023-04-15T07:13:00;96592.38;;;7.31;100.00
18795;BME280;29610;49.022;12.114;2023-04-15T07:15:51;96590.25;;;7.45;100.00
18795;BME280;29610;49.022;12.114;2023-04-15T07:18:41;96589.31;;;7.70;100.00
18795;BME280;29610;49.022;12.114;2023-04-15T07:21:31;96597.88;;;7.72;100.00
18795;BME280;29610;49.022;12.114;2023-04-15T07:24:22;96597.22;;;7.75;100.00
18795;BME280;29610;49.022;12.114;2023-04-15T07:27:15;96594.31;;;8.01;100.00
18795;BME280;29610;49.022;12.114;2023-04-15T07:30:07;96600.78;;;7.88;100.00
18795;BME280;29610;49.022;12.114;2023-04-15T07:32:58;96606.31;;;7.91;100.00
18795;BME280;29610;49.022;12.114;2023-04-15T07:35:49;96603.34;;;8.05;100.00
18795;BME280;29610;49.022;12.114;2023-04-15T07:38:39;96608.91;;;7.88;100.00
18795;BME280;29610;49.022;12.114;2023-04-15T07:41:29;96611.78;;;7.83;100.00
18795;BME280;29610;49.022;12.114;2023-04-15T07:44:21;96606.38;;;7.62;100.00
18795;BME280;29610;49.022;12.114;2023-04-15T07:47:11;96609.31;;;7.69;100.00
18795;BME280;29610;49.022;12.114;2023-04-15T07:50:02;96608.47;;;7.77;100.00
18795;BME280;29610;49.022;12.114;2023-04-15T07:52:52;96616.88;;;7.84;100.00
18795;BME280;29610;49.022;12.114;2023-04-15T07:55:43;96617.66;;;7.85;100.00
18795;BME280;29610;49.022;12.114;2023-04-15T07:58:33;96618.34;;;7.82;100.00
18795;BME280;29610;49.022;12.114;2023-04-15T08:01:24;96622.53;;;7.71;100.00
18795;BME280;29610;49.022;12.114;2023-04-15T08:04:15;96623.41;;;7.63;100.00
18795;BME280;29610;49.022;12.114;2023-04-15T08:07:06;96626.63;;;7.77;100.00
18795;BME280;29610;49.022;12.114;2023-04-15T08:09:56;96625.41;;;7.45;100.00
18795;BME280;29610;49.022;12.114;2023-04-15T08:12:46;96621.59;;;7.67;100.00
18795;BME280;29610;49.022;12.114;2023-04-15T08:15:37;96628.81;;;7.63;100.00
18795;BME280;29610;49.022;12.114;2023-04-15T08:18:29;96622.78;;;7.57;100.00
18795;BME280;29610;49.022;12.114;2023-04-15T08:21:19;96626.31;;;7.49;100.00
18795;BME280;29610;49.022;12.114;2023-04-15T08:24:10;96632.78;;;7.57;100.00
18795;BME280;29610;49.022;12.114;2023-04-15T08:27:01;96632.84;;;7.48;100.00
18795;BME280;29610;49.022;12.114;2023-04-15T08:29:53;96644.69;;;7.35;100.00
18795;BME280;29610;49.022;12.114;2023-04-15T08:32:45;96645.28;;;7.40;100.00
18795;BME280;29610;49.022;12.114;2023-04-15T08:35:37;96641.47;;;7.71;100.00
18795;BME280;29610;49.022;12.114;2023-04-15T08:38:27;96638.16;;;7.65;100.00
18795;BME280;29610;49.022;12.114;2023-04-15T08:41:22;96646.41;;;7.69;100.00
18795;BME280;29610;49.022;12.114;2023-04-15T08:44:13;96645.72;;;7.80;100.00
18795;BME280;29610;49.022;12.114;2023-04-15T08:47:07;96649.38;;;7.96;100.00
18795;BME280;29610;49.022;12.114;2023-04-15T08:50:02;96648.75;;;7.99;100.00
18795;BME280;29610;49.022;12.114;2023-04-15T08:52:57;96647.75;;;8.04;100.00
18795;BME280;29610;49.022;12.114;2023-04-15T08:55:51;96642.72;;;8.14;100.00
18795;BME280;29610;49.022;12.114;2023-04-15T08:58:45;96645.88;;;8.25;100.00
18795;BME280;29610;49.022;12.114;2023-04-15T09:01:37;96652.31;;;8.12;100.00
18795;BME280;29610;49.022;12.114;2023-04-15T09:04:28;96652.34;;;8.32;100.00
18795;BME280;29610;49.022;12.114;2023-04-15T09:07:19;96647.63;;;8.21;100.00
18795;BME280;29610;49.022;12.114;2023-04-15T09:10:11;96647.09;;;8.48;100.00
18795;BME280;29610;49.022;12.114;2023-04-15T09:13:02;96650.53;;;8.36;100.00
18795;BME280;29610;49.022;12.114;2023-04-15T09:15:52;96661.63;;;8.43;100.00
18795;BME280;29610;49.022;12.114;2023-04-15T09:18:43;96663.09;;;8.73;100.00
18795;BME280;29610;49.022;12.114;2023-04-15T09:21:33;96656.56;;;8.42;100.00
18795;BME280;29610;49.022;12.114;2023-04-15T09:24:24;96662.69;;;8.30;100.00
18795;BME280;29610;49.022;12.114;2023-04-15T09:27:17;96666.13;;;8.39;100.00
18795;BME280;29610;49.022;12.114;2023-04-15T09:30:09;96668.03;;;8.39;100.00
18795;BME280;29610;49.022;12.114;2023-04-15T09:33:02;96677.16;;;8.34;100.00
18795;BME280;29610;49.022;12.114;2023-04-15T09:35:58;96675.47;;;8.62;100.00
18795;BME280;29610;49.022;12.114;2023-04-15T09:38:54;96677.81;;;8.84;100.00
18795;BME280;29610;49.022;12.114;2023-04-15T09:41:45;96675.22;;;8.88;100.00
18795;BME280;29610;49.022;12.114;2023-04-15T09:44:36;96677.53;;;8.98;100.00
18795;BME280;29610;49.022;12.114;2023-04-15T09:47:29;96682.59;;;9.00;100.00
18795;BME280;29610;49.022;12.114;2023-04-15T09:50:20;96684.03;;;8.85;100.00
18795;BME280;29610;49.022;12.114;2023-04-15T09:53:14;96687.22;;;8.66;100.00
18795;BME280;29610;49.022;12.114;2023-04-15T09:56:07;96684.56;;;8.78;100.00
18795;BME280;29610;49.022;12.114;2023-04-15T09:58:58;96686.41;;;8.86;100.00
18795;BME280;29610;49.022;12.114;2023-04-15T10:01:49;96676.72;;;9.10;100.00
18795;BME280;29610;49.022;12.114;2023-04-15T10:04:40;96678.88;;;9.04;100.00
18795;BME280;29610;49.022;12.114;2023-04-15T10:07:32;96685.19;;;9.08;100.00
18795;BME280;29610;49.022;12.114;2023-04-15T10:10:23;96681.16;;;9.14;100.00
18795;BME280;29610;49.022;12.114;2023-04-15T10:13:18;96676.38;;;8.99;100.00
18795;BME280;29610;49.022;12.114;2023-04-15T10:16:13;96681.00;;;8.99;100.00
18795;BME280;29610;49.022;12.114;2023-04-15T10:19:07;96685.84;;;8.93;100.00
18795;BME280;29610;49.022;12.114;2023-04-15T10:21:59;96688.03;;;9.12;100.00
18795;BME280;29610;49.022;12.114;2023-04-15T10:24:50;96679.94;;;9.36;100.00
18795;BME280;29610;49.022;12.114;2023-04-15T10:27:42;96681.50;;;9.37;100.00
18795;BME280;29610;49.022;12.114;2023-04-15T10:30:33;96677.38;;;9.63;100.00
18795;BME280;29610;49.022;12.114;2023-04-15T10:33:24;96680.53;;;9.53;100.00
18795;BME280;29610;49.022;12.114;2023-04-15T10:36:21;96676.00;;;9.93;100.00
18795;BME280;29610;49.022;12.114;2023-04-15T10:39:42;96674.72;;;10.15;100.00
18795;BME280;29610;49.022;12.114;2023-04-15T10:42:34;96678.66;;;10.29;100.00
18795;BME280;29610;49.022;12.114;2023-04-15T10:45:26;96668.63;;;10.06;100.00
18795;BME280;29610;49.022;12.114;2023-04-15T10:48:17;96679.38;;;9.90;100.00
18795;BME280;29610;49.022;12.114;2023-04-15T10:51:07;96672.94;;;9.95;100.00
18795;BME280;29610;49.022;12.114;2023-04-15T10:53:59;96673.56;;;10.28;100.00
18795;BME280;29610;49.022;12.114;2023-04-15T10:57:05;96680.28;;;10.06;100.00
18795;BME280;29610;49.022;12.114;2023-04-15T11:00:03;96679.63;;;10.09;100.00
18795;BME280;29610;49.022;12.114;2023-04-15T11:03:08;96673.75;;;9.95;100.00
18795;BME280;29610;49.022;12.114;2023-04-15T11:06:00;96672.34;;;10.13;100.00
18795;BME280;29610;49.022;12.114;2023-04-15T11:09:01;96681.25;;;10.26;100.00
18795;BME280;29610;49.022;12.114;2023-04-15T11:12:07;96693.50;;;9.72;100.00
18795;BME280;29610;49.022;12.114;2023-04-15T11:14:58;96687.63;;;9.58;100.00
18795;BME280;29610;49.022;12.114;2023-04-15T11:17:50;96698.94;;;9.60;100.00
18795;BME280;29610;49.022;12.114;2023-04-15T11:20:46;96692.28;;;9.57;100.00
18795;BME280;29610;49.022;12.114;2023-04-15T11:23:38;96695.22;;;9.64;100.00
18795;BME280;29610;49.022;12.114;2023-04-15T11:26:37;96706.72;;;9.73;100.00
18795;BME280;29610;49.022;12.114;2023-04-15T11:29:29;96703.94;;;9.94;100.00
18795;BME280;29610;49.022;12.114;2023-04-15T11:32:21;96706.50;;;9.78;100.00
18795;BME280;29610;49.022;12.114;2023-04-15T11:35:11;96704.34;;;9.96;100.00
18795;BME280;29610;49.022;12.114;2023-04-15T11:38:03;96709.31;;;10.30;100.00
18795;BME280;29610;49.022;12.114;2023-04-15T11:40:54;96705.81;;;10.69;100.00
18795;BME280;29610;49.022;12.114;2023-04-15T11:43:45;96711.59;;;10.68;100.00
18795;BME280;29610;49.022;12.114;2023-04-15T11:46:36;96710.25;;;10.62;100.00
18795;BME280;29610;49.022;12.114;2023-04-15T11:49:27;96720.25;;;10.46;100.00
18795;BME280;29610;49.022;12.114;2023-04-15T11:52:17;96720.44;;;10.13;100.00
18795;BME280;29610;49.022;12.114;2023-04-15T11:55:07;96733.09;;;10.09;100.00
18795;BME280;29610;49.022;12.114;2023-04-15T11:58:12;96724.03;;;10.05;100.00
18795;BME280;29610;49.022;12.114;2023-04-15T12:01:06;96741.34;;;9.88;100.00
18795;BME280;29610;49.022;12.114;2023-04-15T12:03:55;96735.13;;;10.00;100.00
18795;BME280;29610;49.022;12.114;2023-04-15T12:06:47;96742.50;;;9.87;100.00
18795;BME280;29610;49.022;12.114;2023-04-15T12:09:37;96732.75;;;9.74;100.00
18795;BME280;29610;49.022;12.114;2023-04-15T12:12:27;96748.41;;;9.33;100.00
18795;BME280;29610;49.022;12.114;2023-04-15T12:15:20;96743.22;;;9.40;100.00
18795;BME280;29610;49.022;12.114;2023-04-15T12:18:17;96753.28;;;9.39;100.00
18795;BME280;29610;49.022;12.114;2023-04-15T12:21:10;96755.09;;;9.59;100.00
18795;BME280;29610;49.022;12.114;2023-04-15T12:24:02;96756.28;;;9.26;100.00
18795;BME280;29610;49.022;12.114;2023-04-15T12:26:53;96757.44;;;9.37;100.00
18795;BME280;29610;49.022;12.114;2023-04-15T12:29:43;96758.84;;;9.55;100.00
18795;BME280;29610;49.022;12.114;2023-04-15T12:32:34;96756.72;;;9.72;100.00
18795;BME280;29610;49.022;12.114;2023-04-15T12:35:25;96759.88;;;9.74;100.00
18795;BME280;29610;49.022;12.114;2023-04-15T12:38:15;96762.34;;;9.67;100.00
18795;BME280;29610;49.022;12.114;2023-04-15T12:41:04;96773.25;;;10.03;100.00
18795;BME280;29610;49.022;12.114;2023-04-15T12:43:53;96784.06;;;9.67;100.00
18795;BME280;29610;49.022;12.114;2023-04-15T12:46:45;96784.41;;;9.66;100.00
18795;BME280;29610;49.022;12.114;2023-04-15T12:49:34;96790.41;;;9.71;100.00
18795;BME280;29610;49.022;12.114;2023-04-15T12:52:25;96787.56;;;9.68;100.00
18795;BME280;29610;49.022;12.114;2023-04-15T12:55:17;96791.34;;;9.87;100.00
18795;BME280;29610;49.022;12.114;2023-04-15T12:58:11;96790.66;;;9.90;100.00
18795;BME280;29610;49.022;12.114;2023-04-15T13:01:00;96801.38;;;9.99;100.00
18795;BME280;29610;49.022;12.114;2023-04-15T13:03:50;96804.41;;;9.73;100.00
18795;BME280;29610;49.022;12.114;2023-04-15T13:06:39;96810.00;;;9.44;100.00
18795;BME280;29610;49.022;12.114;2023-04-15T13:09:31;96818.25;;;9.48;100.00
18795;BME280;29610;49.022;12.114;2023-04-15T13:12:25;96820.38;;;9.30;100.00
18795;BME280;29610;49.022;12.114;2023-04-15T13:15:15;96829.59;;;9.29;100.00
18795;BME280;29610;49.022;12.114;2023-04-15T13:18:15;96825.47;;;9.32;100.00
18795;BME280;29610;49.022;12.114;2023-04-15T13:21:04;96829.19;;;9.39;100.00
18795;BME280;29610;49.022;12.114;2023-04-15T13:23:54;96829.97;;;9.72;100.00
18795;BME280;29610;49.022;12.114;2023-04-15T13:26:45;96837.63;;;9.70;100.00
18795;BME280;29610;49.022;12.114;2023-04-15T13:29:36;96850.09;;;9.39;100.00
18795;BME280;29610;49.022;12.114;2023-04-15T13:32:26;96840.28;;;9.46;100.00
18795;BME280;29610;49.022;12.114;2023-04-15T13:35:16;96839.03;;;9.44;100.00
18795;BME280;29610;49.022;12.114;2023-04-15T13:38:05;96856.22;;;9.48;100.00
18795;BME280;29610;49.022;12.114;2023-04-15T13:40:54;96854.00;;;9.29;100.00
18795;BME280;29610;49.022;12.114;2023-04-15T13:43:44;96848.41;;;9.14;100.00
18795;BME280;29610;49.022;12.114;2023-04-15T13:46:39;96858.72;;;9.20;100.00
18795;BME280;29610;49.022;12.114;2023-04-15T13:49:30;96860.16;;;9.18;100.00
18795;BME280;29610;49.022;12.114;2023-04-15T13:52:19;96866.00;;;9.28;100.00
18795;BME280;29610;49.022;12.114;2023-04-15T13:55:09;96866.66;;;9.25;100.00
18795;BME280;29610;49.022;12.114;2023-04-15T13:58:10;96869.06;;;9.39;100.00
18795;BME280;29610;49.022;12.114;2023-04-15T14:01:01;96860.81;;;9.35;100.00
18795;BME280;29610;49.022;12.114;2023-04-15T14:03:54;96861.97;;;9.46;100.00
18795;BME280;29610;49.022;12.114;2023-04-15T14:06:43;96868.66;;;9.49;100.00
18795;BME280;29610;49.022;12.114;2023-04-15T14:09:32;96877.66;;;9.41;100.00
18795;BME280;29610;49.022;12.114;2023-04-15T14:12:22;96882.16;;;9.57;100.00
18795;BME280;29610;49.022;12.114;2023-04-15T14:15:11;96874.69;;;9.34;100.00
18795;BME280;29610;49.022;12.114;2023-04-15T14:18:01;96875.75;;;9.74;100.00
18795;BME280;29610;49.022;12.114;2023-04-15T14:20:50;96876.28;;;9.67;100.00
18795;BME280;29610;49.022;12.114;2023-04-15T14:23:40;96881.22;;;9.98;100.00
18795;BME280;29610;49.022;12.114;2023-04-15T14:26:30;96886.25;;;10.08;100.00
18795;BME280;29610;49.022;12.114;2023-04-15T14:29:21;96887.03;;;10.08;100.00
18795;BME280;29610;49.022;12.114;2023-04-15T14:32:10;96891.34;;;10.09;100.00
18795;BME280;29610;49.022;12.114;2023-04-15T14:35:10;96890.38;;;10.38;100.00
18795;BME280;29610;49.022;12.114;2023-04-15T14:37:59;96886.75;;;10.70;100.00
18795;BME280;29610;49.022;12.114;2023-04-15T14:40:49;96891.63;;;10.53;100.00
18795;BME280;29610;49.022;12.114;2023-04-15T14:43:41;96893.31;;;10.33;100.00
18795;BME280;29610;49.022;12.114;2023-04-15T14:46:31;96896.69;;;10.30;100.00
18795;BME280;29610;49.022;12.114;2023-04-15T14:49:27;96900.53;;;10.53;100.00
18795;BME280;29610;49.022;12.114;2023-04-15T14:52:45;96890.59;;;10.57;100.00
18795;BME280;29610;49.022;12.114;2023-04-15T14:55:42;96900.44;;;10.74;100.00
18795;BME280;29610;49.022;12.114;2023-04-15T14:58:32;96903.72;;;10.79;100.00